createdAt,value
2017-01-24T00:00:13.448Z,16.5
2017-01-24T00:00:54.094Z,16.58
2017-01-24T00:01:34.739Z,16.59
2017-01-24T00:02:15.374Z,16.58
2017-01-24T00:02:56.017Z,16.56
2017-01-24T00:03:36.652Z,16.58
2017-01-24T00:04:17.287Z,16.55
2017-01-24T00:04:57.917Z,16.58
2017-01-24T00:05:38.555Z,16.56
2017-01-24T00:06:19.221Z,16.55
2017-01-24T00:06:59.871Z,16.62
2017-01-24T00:07:40.523Z,16.55
2017-01-24T00:08:21.174Z,16.58
2017-01-24T00:09:01.817Z,16.52
2017-01-24T00:09:42.484Z,16.56
2017-01-24T00:10:23.124Z,16.58
2017-01-24T00:11:03.744Z,16.56
2017-01-24T00:11:44.391Z,16.6
2017-01-24T00:12:25.030Z,16.58
2017-01-24T00:13:05.660Z,16.55
2017-01-24T00:13:46.348Z,16.58
2017-01-24T00:14:27.000Z,16.52
2017-01-24T00:15:07.634Z,16.56
2017-01-24T00:15:48.277Z,16.52
2017-01-24T00:16:28.929Z,16.55
2017-01-24T00:17:09.583Z,16.53
2017-01-24T00:17:50.269Z,16.56
2017-01-24T00:18:30.904Z,16.48
2017-01-24T00:19:11.556Z,16.55
2017-01-24T00:19:53.190Z,16.56
2017-01-24T00:20:33.816Z,16.56
2017-01-24T00:21:14.450Z,16.55
2017-01-24T00:21:55.199Z,16.52
2017-01-24T00:22:35.827Z,16.49
2017-01-24T00:23:16.457Z,16.58
2017-01-24T00:23:57.089Z,16.5
2017-01-24T00:24:37.714Z,16.5
2017-01-24T00:25:18.349Z,16.55
2017-01-24T00:25:58.976Z,16.53
2017-01-24T00:26:39.616Z,16.5
2017-01-24T00:27:20.252Z,16.45
2017-01-24T00:28:00.914Z,16.52
2017-01-24T00:28:41.594Z,16.48
2017-01-24T00:29:22.223Z,16.48
2017-01-24T00:30:02.850Z,16.5
2017-01-24T00:30:43.524Z,16.49
2017-01-24T00:31:24.150Z,16.5
2017-01-24T00:32:04.790Z,16.55
2017-01-24T00:32:45.453Z,16.5
2017-01-24T00:33:26.103Z,16.53
2017-01-24T00:34:06.752Z,16.56
2017-01-24T00:34:47.376Z,16.45
2017-01-24T00:35:28.010Z,16.45
2017-01-24T00:36:08.660Z,16.52
2017-01-24T00:36:49.284Z,16.45
2017-01-24T00:37:29.902Z,16.44
2017-01-24T00:38:10.526Z,16.55
2017-01-24T00:38:51.165Z,16.5
2017-01-24T00:39:31.794Z,16.55
2017-01-24T00:40:12.435Z,16.4
2017-01-24T00:40:53.076Z,16.55
2017-01-24T00:41:33.701Z,16.5
2017-01-24T00:42:14.340Z,16.49
2017-01-24T00:42:54.974Z,16.53
2017-01-24T00:43:35.620Z,16.45
2017-01-24T00:44:16.245Z,16.5
2017-01-24T00:44:56.864Z,16.5
2017-01-24T00:45:37.520Z,16.44
2017-01-24T00:46:18.148Z,16.48
2017-01-24T00:46:58.771Z,16.48
2017-01-24T00:47:39.467Z,16.53
2017-01-24T00:48:20.106Z,16.52
2017-01-24T00:49:00.728Z,16.45
2017-01-24T00:49:41.379Z,16.48
2017-01-24T00:50:22.017Z,16.56
2017-01-24T00:51:02.647Z,16.52
2017-01-24T00:51:43.348Z,16.45
2017-01-24T00:52:23.984Z,16.45
2017-01-24T00:53:04.638Z,16.5
2017-01-24T00:53:45.282Z,16.49
2017-01-24T00:54:25.920Z,16.48
2017-01-24T00:55:06.543Z,16.48
2017-01-24T00:55:47.184Z,16.53
2017-01-24T00:56:27.836Z,16.45
2017-01-24T00:57:08.486Z,16.55
2017-01-24T00:57:49.112Z,16.41
2017-01-24T00:58:29.790Z,16.49
2017-01-24T00:59:10.416Z,16.41
2017-01-24T00:59:51.040Z,16.44
2017-01-24T01:00:31.753Z,16.41
2017-01-24T01:01:12.388Z,16.42
2017-01-24T01:01:53.013Z,16.41
2017-01-24T01:02:33.646Z,16.41
2017-01-24T01:03:14.271Z,16.42
2017-01-24T01:03:54.897Z,16.38
2017-01-24T01:04:35.530Z,16.44
2017-01-24T01:05:16.167Z,16.48
2017-01-24T01:05:56.810Z,16.48
2017-01-24T01:06:37.458Z,16.42
2017-01-24T01:07:18.091Z,16.4
2017-01-24T01:07:58.802Z,16.42
2017-01-24T01:08:39.474Z,16.38
2017-01-24T01:09:20.238Z,16.41
2017-01-24T01:10:00.976Z,16.41
2017-01-24T01:10:41.695Z,16.41
2017-01-24T01:11:22.330Z,16.42
2017-01-24T01:12:02.958Z,16.37
2017-01-24T01:12:43.624Z,16.35
2017-01-24T01:13:24.268Z,16.4
2017-01-24T01:14:04.890Z,16.38
2017-01-24T01:14:45.626Z,16.31
2017-01-24T01:15:26.265Z,16.4
2017-01-24T01:16:06.936Z,16.37
2017-01-24T01:16:47.582Z,16.35
2017-01-24T01:17:28.220Z,16.4
2017-01-24T01:18:08.849Z,16.35
2017-01-24T01:18:49.574Z,16.31
2017-01-24T01:19:30.204Z,16.38
2017-01-24T01:20:10.856Z,16.38
2017-01-24T01:20:51.546Z,16.37
2017-01-24T01:21:32.173Z,16.3
2017-01-24T01:22:12.809Z,16.33
2017-01-24T01:22:53.441Z,16.34
2017-01-24T01:23:34.101Z,16.35
2017-01-24T01:24:14.728Z,16.35
2017-01-24T01:24:55.359Z,16.3
2017-01-24T01:25:35.995Z,16.3
2017-01-24T01:26:16.627Z,16.33
2017-01-24T01:26:57.261Z,16.41
2017-01-24T01:27:37.900Z,16.34
2017-01-24T01:28:18.529Z,16.41
2017-01-24T01:28:59.161Z,16.37
2017-01-24T01:29:39.790Z,16.37
2017-01-24T01:30:20.408Z,16.35
2017-01-24T01:31:01.093Z,16.27
2017-01-24T01:31:41.732Z,16.33
2017-01-24T01:32:22.356Z,16.37
2017-01-24T01:33:03.002Z,16.45
2017-01-24T01:33:43.674Z,16.34
2017-01-24T01:34:24.270Z,16.34
2017-01-24T01:35:04.906Z,16.37
2017-01-24T01:35:45.534Z,16.37
2017-01-24T01:36:26.197Z,16.38
2017-01-24T01:37:06.904Z,16.31
2017-01-24T01:37:47.535Z,16.26
2017-01-24T01:38:28.173Z,16.25
2017-01-24T01:39:08.810Z,16.25
2017-01-24T01:39:49.437Z,16.34
2017-01-24T01:40:30.099Z,16.37
2017-01-24T01:41:10.725Z,16.37
2017-01-24T01:41:51.353Z,16.4
2017-01-24T01:42:32.033Z,16.31
2017-01-24T01:43:12.660Z,16.33
2017-01-24T01:43:53.297Z,16.31
2017-01-24T01:44:34.021Z,16.38
2017-01-24T01:45:14.650Z,16.35
2017-01-24T01:45:55.333Z,16.37
2017-01-24T01:46:35.972Z,16.35
2017-01-24T01:47:16.621Z,16.38
2017-01-24T01:47:57.287Z,16.31
2017-01-24T01:48:37.875Z,16.33
2017-01-24T01:49:18.518Z,16.35
2017-01-24T01:49:59.190Z,16.33
2017-01-24T01:50:39.833Z,16.37
2017-01-24T01:51:20.463Z,16.33
2017-01-24T01:52:01.090Z,16.31
2017-01-24T01:52:41.827Z,16.37
2017-01-24T01:53:22.439Z,16.34
2017-01-24T01:54:03.072Z,16.27
2017-01-24T01:54:43.694Z,16.27
2017-01-24T01:55:24.332Z,16.26
2017-01-24T01:56:04.960Z,16.2
2017-01-24T01:56:45.605Z,16.18
2017-01-24T01:57:26.268Z,16.2
2017-01-24T01:58:06.905Z,16.23
2017-01-24T01:58:47.544Z,16.23
2017-01-24T01:59:28.163Z,16.3
2017-01-24T02:00:08.818Z,16.23
2017-01-24T02:00:49.454Z,16.27
2017-01-24T02:01:30.107Z,16.22
2017-01-24T02:02:10.733Z,16.23
2017-01-24T02:02:51.375Z,16.22
2017-01-24T02:03:32.028Z,16.23
2017-01-24T02:04:12.701Z,16.18
2017-01-24T02:04:53.351Z,16.25
2017-01-24T02:05:33.954Z,16.25
2017-01-24T02:06:14.583Z,16.2
2017-01-24T02:06:55.210Z,16.31
2017-01-24T02:07:35.861Z,16.15
2017-01-24T02:08:16.491Z,16.26
2017-01-24T02:08:57.159Z,16.3
2017-01-24T02:09:37.884Z,16.26
2017-01-24T02:10:18.508Z,16.22
2017-01-24T02:10:59.214Z,16.3
2017-01-24T02:11:39.901Z,16.2
2017-01-24T02:12:20.557Z,16.25
2017-01-24T02:13:01.214Z,16.2
2017-01-24T02:13:41.947Z,16.18
2017-01-24T02:14:22.673Z,16.15
2017-01-24T02:15:03.394Z,16.22
2017-01-24T02:15:44.109Z,16.22
2017-01-24T02:16:24.923Z,16.18
2017-01-24T02:17:05.657Z,16.18
2017-01-24T02:17:46.364Z,16.15
2017-01-24T02:18:27.090Z,16.22
2017-01-24T02:19:07.939Z,16.16
2017-01-24T02:19:48.659Z,16.15
2017-01-24T02:20:29.373Z,16.12
2017-01-24T02:21:10.084Z,16.12
2017-01-24T02:21:51.805Z,16.18
2017-01-24T02:22:32.515Z,16.15
2017-01-24T02:23:13.312Z,16.15
2017-01-24T02:23:53.934Z,16.18
2017-01-24T02:24:34.648Z,16.11
2017-01-24T02:25:15.378Z,16.18
2017-01-24T02:25:56.088Z,16.15
2017-01-24T02:26:36.879Z,16.12
2017-01-24T02:27:17.609Z,16.15
2017-01-24T02:27:58.320Z,16.09
2017-01-24T02:28:39.061Z,16.12
2017-01-24T02:29:19.852Z,16.07
2017-01-24T02:30:00.561Z,16.04
2017-01-24T02:30:41.270Z,16.16
2017-01-24T02:31:21.974Z,16.16
2017-01-24T02:32:02.689Z,16.14
2017-01-24T02:32:43.387Z,16.14
2017-01-24T02:33:24.109Z,16.15
2017-01-24T02:34:04.832Z,16.18
2017-01-24T02:34:45.541Z,16.16
2017-01-24T02:35:26.300Z,16.11
2017-01-24T02:36:07.008Z,16.07
2017-01-24T02:36:47.715Z,16.16
2017-01-24T02:37:28.437Z,16.14
2017-01-24T02:38:09.119Z,16.16
2017-01-24T02:38:49.738Z,16.16
2017-01-24T02:39:30.422Z,16.11
2017-01-24T02:40:11.098Z,16.18
2017-01-24T02:40:51.725Z,16.14
2017-01-24T02:41:32.363Z,16.14
2017-01-24T02:42:12.992Z,16.12
2017-01-24T02:42:53.632Z,16.06
2017-01-24T02:43:34.253Z,16.16
2017-01-24T02:44:14.890Z,16.16
2017-01-24T02:44:55.525Z,16.12
2017-01-24T02:45:36.164Z,16.14
2017-01-24T02:46:16.820Z,16.07
2017-01-24T02:46:57.449Z,16.2
2017-01-24T02:47:38.073Z,16.09
2017-01-24T02:48:18.701Z,16.07
2017-01-24T02:48:59.328Z,16.07
2017-01-24T02:49:39.973Z,16.09
2017-01-24T02:50:20.621Z,16.03
2017-01-24T02:51:01.241Z,16.07
2017-01-24T02:51:41.870Z,16.07
2017-01-24T02:52:22.523Z,16.11
2017-01-24T02:53:03.140Z,16.18
2017-01-24T02:53:43.771Z,16.09
2017-01-24T02:54:24.396Z,16.06
2017-01-24T02:55:05.032Z,16.14
2017-01-24T02:55:45.723Z,16.06
2017-01-24T02:56:26.346Z,16.09
2017-01-24T02:57:06.973Z,16.14
2017-01-24T02:57:47.601Z,16.07
2017-01-24T02:58:28.307Z,16.09
2017-01-24T02:59:08.893Z,16.06
2017-01-24T02:59:49.563Z,16.12
2017-01-24T03:00:30.194Z,16.06
2017-01-24T03:01:10.826Z,16.06
2017-01-24T03:01:51.499Z,16.07
2017-01-24T03:02:32.129Z,16.04
2017-01-24T03:03:12.752Z,16.12
2017-01-24T03:03:53.378Z,16.03
2017-01-24T03:04:34.017Z,16.11
2017-01-24T03:05:14.645Z,16.11
2017-01-24T03:05:55.384Z,16.07
2017-01-24T03:06:36.010Z,16.11
2017-01-24T03:07:16.647Z,16.04
2017-01-24T03:07:57.338Z,16.07
2017-01-24T03:08:37.974Z,16.07
2017-01-24T03:09:18.620Z,16.14
2017-01-24T03:09:59.344Z,16.09
2017-01-24T03:10:39.972Z,16.06
2017-01-24T03:11:20.606Z,16.15
2017-01-24T03:12:01.305Z,16.12
2017-01-24T03:12:41.927Z,16.12
2017-01-24T03:13:22.573Z,16.15
2017-01-24T03:14:03.301Z,16.01
2017-01-24T03:14:43.925Z,16.03
2017-01-24T03:15:24.564Z,16.14
2017-01-24T03:16:05.184Z,16.11
2017-01-24T03:16:45.810Z,16.12
2017-01-24T03:17:26.481Z,16.18
2017-01-24T03:18:07.179Z,16.06
2017-01-24T03:18:47.796Z,16.07
2017-01-24T03:19:28.436Z,16.09
2017-01-24T03:20:09.152Z,16.14
2017-01-24T03:20:49.792Z,16.11
2017-01-24T03:21:30.417Z,16.07
2017-01-24T03:22:11.048Z,16.07
2017-01-24T03:22:51.688Z,16.07
2017-01-24T03:23:32.313Z,16.12
2017-01-24T03:24:12.970Z,16.06
2017-01-24T03:24:53.609Z,16
2017-01-24T03:25:34.237Z,16.14
2017-01-24T03:26:14.859Z,16.15
2017-01-24T03:26:55.481Z,16.15
2017-01-24T03:27:36.115Z,16.11
2017-01-24T03:28:16.768Z,16.06
2017-01-24T03:28:57.457Z,16.03
2017-01-24T03:29:38.100Z,16.06
2017-01-24T03:30:18.723Z,16.11
2017-01-24T03:30:59.424Z,16.07
2017-01-24T03:31:40.082Z,16.03
2017-01-24T03:32:20.686Z,16.11
2017-01-24T03:33:01.392Z,16.11
2017-01-24T03:33:42.048Z,16.11
2017-01-24T03:34:22.690Z,16.15
2017-01-24T03:35:03.316Z,16.09
2017-01-24T03:35:43.943Z,16.11
2017-01-24T03:36:24.564Z,16.07
2017-01-24T03:37:05.202Z,16.01
2017-01-24T03:37:45.823Z,16.09
2017-01-24T03:38:26.456Z,16.01
2017-01-24T03:39:07.078Z,16.15
2017-01-24T03:39:49.054Z,16
2017-01-24T03:40:29.690Z,16
2017-01-24T03:41:10.416Z,15.99
2017-01-24T03:41:51.052Z,16.06
2017-01-24T03:42:31.680Z,16.12
2017-01-24T03:43:12.303Z,16.06
2017-01-24T03:43:52.979Z,16.09
2017-01-24T03:44:33.592Z,16.09
2017-01-24T03:45:14.231Z,16.09
2017-01-24T03:45:54.917Z,15.99
2017-01-24T03:46:35.526Z,16.07
2017-01-24T03:47:16.144Z,16.03
2017-01-24T03:47:56.789Z,16.06
2017-01-24T03:48:37.491Z,16.03
2017-01-24T03:49:18.142Z,16.04
2017-01-24T03:49:58.778Z,16.11
2017-01-24T03:50:39.400Z,16.09
2017-01-24T03:51:20.042Z,16.11
2017-01-24T03:52:00.690Z,16.11
2017-01-24T03:52:41.311Z,16.15
2017-01-24T03:53:22.062Z,16.14
2017-01-24T03:54:02.704Z,16.07
2017-01-24T03:54:43.328Z,16.07
2017-01-24T03:55:23.963Z,16.04
2017-01-24T03:56:04.605Z,16.11
2017-01-24T03:56:45.252Z,16.01
2017-01-24T03:57:25.879Z,16.07
2017-01-24T03:58:06.575Z,16.12
2017-01-24T03:58:47.190Z,16.12
2017-01-24T03:59:27.833Z,16.14
2017-01-24T04:00:08.447Z,16.06
2017-01-24T04:00:49.135Z,16.11
2017-01-24T04:01:29.755Z,16.14
2017-01-24T04:02:10.383Z,16.12
2017-01-24T04:02:51.009Z,16.07
2017-01-24T04:03:31.664Z,16.04
2017-01-24T04:04:12.290Z,16.07
2017-01-24T04:04:52.912Z,16.07
2017-01-24T04:05:33.605Z,16.11
2017-01-24T04:06:14.224Z,16.06
2017-01-24T04:06:54.863Z,16.03
2017-01-24T04:07:35.535Z,16.06
2017-01-24T04:08:16.193Z,16.11
2017-01-24T04:08:56.829Z,16.06
2017-01-24T04:09:37.462Z,16.11
2017-01-24T04:10:18.091Z,16.11
2017-01-24T04:10:58.743Z,16.12
2017-01-24T04:11:39.385Z,16.15
2017-01-24T04:12:20.020Z,16.06
2017-01-24T04:13:00.646Z,16.09
2017-01-24T04:13:41.282Z,16.11
2017-01-24T04:14:21.926Z,16.01
2017-01-24T04:15:02.561Z,16.11
2017-01-24T04:15:43.198Z,16.11
2017-01-24T04:16:23.819Z,16.09
2017-01-24T04:17:04.526Z,15.93
2017-01-24T04:17:45.156Z,16.04
2017-01-24T04:18:25.778Z,16.03
2017-01-24T04:19:06.464Z,15.99
2017-01-24T04:19:47.135Z,16.06
2017-01-24T04:20:27.735Z,16.06
2017-01-24T04:21:08.371Z,16.09
2017-01-24T04:21:49.059Z,16.14
2017-01-24T04:22:29.698Z,16.09
2017-01-24T04:23:10.333Z,16.06
2017-01-24T04:23:51.019Z,16.06
2017-01-24T04:24:31.647Z,16.04
2017-01-24T04:25:12.289Z,16.06
2017-01-24T04:25:52.940Z,16.09
2017-01-24T04:26:33.579Z,16.06
2017-01-24T04:27:14.217Z,16
2017-01-24T04:27:54.862Z,15.99
2017-01-24T04:28:35.513Z,16.04
2017-01-24T04:29:16.165Z,16
2017-01-24T04:29:56.803Z,16.01
2017-01-24T04:30:37.439Z,16.03
2017-01-24T04:31:18.063Z,16.12
2017-01-24T04:31:58.702Z,16.14
2017-01-24T04:32:39.332Z,16.12
2017-01-24T04:33:19.973Z,16.12
2017-01-24T04:34:00.629Z,16.09
2017-01-24T04:34:41.275Z,16.03
2017-01-24T04:35:21.932Z,16.11
2017-01-24T04:36:02.597Z,16.07
2017-01-24T04:36:43.236Z,16.09
2017-01-24T04:37:23.893Z,16.11
2017-01-24T04:38:04.566Z,16.09
2017-01-24T04:38:45.198Z,16.11
2017-01-24T04:39:25.823Z,16.15
2017-01-24T04:40:06.514Z,16.09
2017-01-24T04:40:47.153Z,16
2017-01-24T04:41:27.844Z,16.12
2017-01-24T04:42:08.475Z,16.07
2017-01-24T04:42:49.105Z,16.15
2017-01-24T04:43:29.721Z,16.09
2017-01-24T04:44:10.355Z,15.97
2017-01-24T04:44:50.979Z,16.12
2017-01-24T04:45:31.673Z,16.18
2017-01-24T04:46:12.311Z,16.11
2017-01-24T04:46:52.937Z,16.14
2017-01-24T04:47:33.679Z,16.15
2017-01-24T04:48:14.417Z,16.12
2017-01-24T04:48:55.050Z,16.11
2017-01-24T04:49:35.673Z,16.09
2017-01-24T04:50:16.314Z,16.15
2017-01-24T04:50:56.950Z,16.04
2017-01-24T04:51:37.587Z,16.07
2017-01-24T04:52:18.220Z,16.06
2017-01-24T04:52:58.859Z,16.11
2017-01-24T04:53:39.483Z,16.11
2017-01-24T04:54:20.120Z,16.14
2017-01-24T04:55:00.740Z,16.15
2017-01-24T04:55:41.472Z,16.07
2017-01-24T04:56:22.110Z,16.07
2017-01-24T04:57:02.733Z,16.14
2017-01-24T04:57:43.387Z,16.14
2017-01-24T04:58:24.021Z,16.07
2017-01-24T04:59:04.643Z,16.14
2017-01-24T04:59:45.264Z,16.15
2017-01-24T05:00:25.888Z,16.07
2017-01-24T05:01:06.532Z,16.14
2017-01-24T05:01:47.161Z,16.12
2017-01-24T05:02:27.824Z,16.01
2017-01-24T05:03:08.457Z,16.01
2017-01-24T05:03:49.106Z,16.01
2017-01-24T05:04:29.748Z,15.97
2017-01-24T05:05:10.377Z,15.99
2017-01-24T05:05:51.011Z,15.99
2017-01-24T05:06:31.731Z,16
2017-01-24T05:07:12.385Z,15.97
2017-01-24T05:07:53.022Z,16
2017-01-24T05:08:33.654Z,16
2017-01-24T05:09:14.287Z,15.99
2017-01-24T05:09:54.919Z,15.99
2017-01-24T05:10:35.629Z,16.06
2017-01-24T05:11:16.283Z,16.04
2017-01-24T05:11:56.935Z,15.99
2017-01-24T05:12:37.568Z,16
2017-01-24T05:13:18.196Z,16.03
2017-01-24T05:13:58.845Z,16.03
2017-01-24T05:14:39.467Z,16.07
2017-01-24T05:15:20.100Z,16.04
2017-01-24T05:16:00.741Z,16.03
2017-01-24T05:16:41.369Z,16.01
2017-01-24T05:17:22.012Z,16.07
2017-01-24T05:18:02.708Z,16.04
2017-01-24T05:18:43.334Z,16.03
2017-01-24T05:19:23.970Z,16.04
2017-01-24T05:20:04.615Z,16.03
2017-01-24T05:20:45.242Z,16.01
2017-01-24T05:21:25.891Z,16.04
2017-01-24T05:22:06.541Z,15.99
2017-01-24T05:22:47.170Z,15.94
2017-01-24T05:23:27.801Z,15.94
2017-01-24T05:24:08.449Z,15.96
2017-01-24T05:24:49.084Z,15.93
2017-01-24T05:25:29.730Z,16
2017-01-24T05:26:10.434Z,16
2017-01-24T05:26:51.070Z,15.94
2017-01-24T05:27:31.744Z,15.93
2017-01-24T05:28:12.460Z,15.99
2017-01-24T05:28:53.133Z,15.93
2017-01-24T05:29:33.768Z,15.97
2017-01-24T05:30:14.424Z,15.99
2017-01-24T05:30:55.065Z,15.94
2017-01-24T05:31:35.699Z,15.99
2017-01-24T05:32:16.411Z,16.01
2017-01-24T05:32:57.093Z,15.97
2017-01-24T05:33:37.743Z,15.96
2017-01-24T05:34:18.533Z,15.96
2017-01-24T05:34:59.208Z,15.94
2017-01-24T05:35:39.960Z,15.96
2017-01-24T05:36:20.634Z,15.94
2017-01-24T05:37:01.269Z,16.03
2017-01-24T05:37:41.907Z,16.03
2017-01-24T05:38:22.593Z,15.93
2017-01-24T05:39:03.239Z,16
2017-01-24T05:39:43.962Z,16.04
2017-01-24T05:40:24.592Z,15.99
2017-01-24T05:41:05.232Z,16.04
2017-01-24T05:41:45.887Z,16.03
2017-01-24T05:42:26.559Z,15.99
2017-01-24T05:43:07.246Z,16.01
2017-01-24T05:43:47.879Z,16
2017-01-24T05:44:28.561Z,15.92
2017-01-24T05:45:09.208Z,16.01
2017-01-24T05:45:49.845Z,16
2017-01-24T05:46:30.501Z,16.07
2017-01-24T05:47:11.117Z,15.99
2017-01-24T05:47:51.860Z,16.03
2017-01-24T05:48:32.539Z,16.01
2017-01-24T05:49:13.218Z,16.01
2017-01-24T05:49:53.954Z,16.04
2017-01-24T05:50:34.560Z,16.01
2017-01-24T05:51:15.220Z,16
2017-01-24T05:51:55.870Z,16
2017-01-24T05:52:36.548Z,16.04
2017-01-24T05:53:17.222Z,16.04
2017-01-24T05:53:57.858Z,16.01
2017-01-24T05:54:38.495Z,16.04
2017-01-24T05:55:19.142Z,16.01
2017-01-24T05:55:59.789Z,16.03
2017-01-24T05:56:40.557Z,16.01
2017-01-24T05:57:21.227Z,16.04
2017-01-24T05:58:01.921Z,16.06
2017-01-24T05:58:42.630Z,16.01
2017-01-24T05:59:23.347Z,16.06
2017-01-24T06:00:03.977Z,15.96
2017-01-24T06:00:44.618Z,16.04
2017-01-24T06:01:25.246Z,16
2017-01-24T06:02:05.893Z,16
2017-01-24T06:02:46.521Z,16.06
2017-01-24T06:03:27.166Z,16.01
2017-01-24T06:04:07.862Z,16.03
2017-01-24T06:04:48.522Z,16.03
2017-01-24T06:05:29.159Z,16.03
2017-01-24T06:06:09.811Z,16.04
2017-01-24T06:06:50.517Z,16.01
2017-01-24T06:07:31.148Z,16.04
2017-01-24T06:08:11.858Z,16.01
2017-01-24T06:08:52.526Z,15.97
2017-01-24T06:09:33.298Z,16
2017-01-24T06:10:13.974Z,16.03
2017-01-24T06:10:54.629Z,15.99
2017-01-24T06:11:35.301Z,16
2017-01-24T06:12:15.943Z,15.99
2017-01-24T06:12:56.581Z,16.03
2017-01-24T06:13:37.226Z,16.01
2017-01-24T06:14:17.866Z,16.04
2017-01-24T06:14:58.502Z,16.01
2017-01-24T06:15:39.150Z,16.01
2017-01-24T06:16:19.878Z,16.01
2017-01-24T06:17:00.511Z,16.03
2017-01-24T06:17:41.162Z,15.99
2017-01-24T06:18:21.966Z,16.03
2017-01-24T06:19:02.617Z,15.97
2017-01-24T06:19:43.252Z,16
2017-01-24T06:20:23.966Z,16.07
2017-01-24T06:21:04.669Z,16.06
2017-01-24T06:21:45.306Z,16.01
2017-01-24T06:22:25.959Z,15.99
2017-01-24T06:23:06.588Z,16
2017-01-24T06:23:47.223Z,15.96
2017-01-24T06:24:27.848Z,15.97
2017-01-24T06:25:08.528Z,16
2017-01-24T06:25:49.172Z,16.01
2017-01-24T06:26:29.801Z,15.99
2017-01-24T06:27:10.502Z,15.99
2017-01-24T06:27:51.153Z,16
2017-01-24T06:28:31.794Z,16.01
2017-01-24T06:29:12.415Z,16
2017-01-24T06:29:53.057Z,16
2017-01-24T06:30:33.693Z,16
2017-01-24T06:31:14.362Z,16.01
2017-01-24T06:31:55.011Z,16.04
2017-01-24T06:32:35.657Z,15.96
2017-01-24T06:33:16.333Z,15.94
2017-01-24T06:33:56.940Z,15.94
2017-01-24T06:34:37.578Z,16.03
2017-01-24T06:35:18.290Z,16
2017-01-24T06:35:58.954Z,15.96
2017-01-24T06:36:39.583Z,15.97
2017-01-24T06:37:20.248Z,15.89
2017-01-24T06:38:00.898Z,15.93
2017-01-24T06:38:41.528Z,15.93
2017-01-24T06:39:22.269Z,15.97
2017-01-24T06:40:02.925Z,15.93
2017-01-24T06:40:43.552Z,15.89
2017-01-24T06:41:24.259Z,15.82
2017-01-24T06:42:04.889Z,15.96
2017-01-24T06:42:45.515Z,15.88
2017-01-24T06:43:26.208Z,15.93
2017-01-24T06:44:06.859Z,15.89
2017-01-24T06:44:47.472Z,15.96
2017-01-24T06:45:28.137Z,15.93
2017-01-24T06:46:08.771Z,15.93
2017-01-24T06:46:49.428Z,15.96
2017-01-24T06:47:30.660Z,15.89
2017-01-24T06:48:11.312Z,15.93
2017-01-24T06:48:51.930Z,15.89
2017-01-24T06:49:32.551Z,15.93
2017-01-24T06:50:13.179Z,15.92
2017-01-24T06:50:53.808Z,15.96
2017-01-24T06:51:34.435Z,16.03
2017-01-24T06:52:15.084Z,15.97
2017-01-24T06:52:55.725Z,16.03
2017-01-24T06:53:36.376Z,15.96
2017-01-24T06:54:17.029Z,16.03
2017-01-24T06:54:57.674Z,15.96
2017-01-24T06:55:38.319Z,15.96
2017-01-24T06:56:18.939Z,16.03
2017-01-24T06:56:59.628Z,15.93
2017-01-24T06:57:40.254Z,16
2017-01-24T06:58:20.879Z,15.96
2017-01-24T06:59:01.594Z,15.96
2017-01-24T06:59:42.211Z,15.96
2017-01-24T07:00:22.837Z,15.96
2017-01-24T07:01:03.483Z,15.93
2017-01-24T07:01:44.119Z,15.94
2017-01-24T07:02:24.754Z,15.96
2017-01-24T07:03:05.389Z,15.93
2017-01-24T07:03:46.014Z,15.99
2017-01-24T07:04:26.648Z,15.94
2017-01-24T07:05:07.374Z,15.97
2017-01-24T07:05:48.018Z,15.97
2017-01-24T07:06:28.677Z,15.96
2017-01-24T07:07:09.400Z,15.96
2017-01-24T07:07:50.034Z,15.96
2017-01-24T07:08:30.673Z,15.93
2017-01-24T07:09:11.384Z,15.94
2017-01-24T07:09:52.010Z,15.94
2017-01-24T07:10:32.644Z,15.99
2017-01-24T07:11:13.348Z,15.96
2017-01-24T07:11:54.014Z,15.97
2017-01-24T07:12:34.653Z,15.96
2017-01-24T07:13:15.360Z,16.03
2017-01-24T07:13:55.994Z,15.99
2017-01-24T07:14:36.619Z,15.94
2017-01-24T07:15:17.346Z,15.93
2017-01-24T07:15:57.964Z,15.99
2017-01-24T07:16:38.586Z,15.96
2017-01-24T07:17:19.223Z,15.96
2017-01-24T07:17:59.855Z,15.94
2017-01-24T07:18:40.501Z,15.94
2017-01-24T07:19:21.133Z,15.96
2017-01-24T07:20:01.759Z,15.96
2017-01-24T07:20:42.404Z,15.93
2017-01-24T07:21:23.029Z,15.92
2017-01-24T07:22:03.656Z,16
2017-01-24T07:22:44.396Z,15.89
2017-01-24T07:23:25.019Z,15.97
2017-01-24T07:24:05.654Z,15.89
2017-01-24T07:24:46.406Z,15.96
2017-01-24T07:25:27.032Z,15.93
2017-01-24T07:26:07.719Z,15.94
2017-01-24T07:26:48.371Z,15.93
2017-01-24T07:27:29.015Z,15.86
2017-01-24T07:28:09.733Z,15.96
2017-01-24T07:28:50.414Z,15.89
2017-01-24T07:29:31.039Z,15.92
2017-01-24T07:30:11.694Z,15.96
2017-01-24T07:30:52.336Z,15.88
2017-01-24T07:31:32.976Z,15.96
2017-01-24T07:32:13.706Z,15.92
2017-01-24T07:32:54.340Z,15.86
2017-01-24T07:33:34.992Z,15.97
2017-01-24T07:34:15.628Z,15.93
2017-01-24T07:34:56.249Z,15.93
2017-01-24T07:35:36.887Z,15.94
2017-01-24T07:36:17.630Z,15.85
2017-01-24T07:36:58.269Z,15.89
2017-01-24T07:37:38.917Z,15.96
2017-01-24T07:38:19.568Z,15.92
2017-01-24T07:39:00.198Z,15.93
2017-01-24T07:39:40.836Z,15.92
2017-01-24T07:40:21.529Z,15.94
2017-01-24T07:41:02.197Z,15.88
2017-01-24T07:41:42.790Z,15.93
2017-01-24T07:42:23.413Z,15.92
2017-01-24T07:43:04.041Z,15.86
2017-01-24T07:43:44.686Z,15.93
2017-01-24T07:44:25.309Z,15.89
2017-01-24T07:45:05.931Z,15.93
2017-01-24T07:45:46.561Z,15.88
2017-01-24T07:46:27.194Z,15.89
2017-01-24T07:47:07.818Z,15.92
2017-01-24T07:47:49.289Z,15.88
2017-01-24T07:48:29.931Z,15.93
2017-01-24T07:49:10.563Z,15.93
2017-01-24T07:49:51.191Z,15.96
2017-01-24T07:50:31.850Z,15.94
2017-01-24T07:51:12.485Z,15.96
2017-01-24T07:51:53.194Z,15.84
2017-01-24T07:52:33.822Z,15.92
2017-01-24T07:53:14.491Z,15.93
2017-01-24T07:53:55.089Z,15.93
2017-01-24T07:54:35.729Z,15.88
2017-01-24T07:55:16.375Z,15.96
2017-01-24T07:55:57.018Z,15.94
2017-01-24T07:56:37.666Z,15.85
2017-01-24T07:57:18.290Z,15.94
2017-01-24T07:57:58.920Z,15.96
2017-01-24T07:58:39.565Z,15.89
2017-01-24T07:59:20.187Z,15.97
2017-01-24T08:00:00.945Z,15.89
2017-01-24T08:00:41.563Z,15.86
2017-01-24T08:01:22.195Z,15.92
2017-01-24T08:02:02.841Z,15.89
2017-01-24T08:02:43.485Z,15.94
2017-01-24T08:03:24.115Z,15.85
2017-01-24T08:04:04.775Z,15.86
2017-01-24T08:04:45.409Z,15.85
2017-01-24T08:05:26.050Z,15.86
2017-01-24T08:06:06.683Z,15.82
2017-01-24T08:06:47.306Z,15.85
2017-01-24T08:07:27.930Z,15.79
2017-01-24T08:08:08.571Z,15.79
2017-01-24T08:08:49.224Z,15.84
2017-01-24T08:09:29.860Z,15.89
2017-01-24T08:10:10.486Z,15.78
2017-01-24T08:10:51.135Z,15.92
2017-01-24T08:11:31.763Z,15.86
2017-01-24T08:12:12.457Z,15.84
2017-01-24T08:12:53.091Z,15.81
2017-01-24T08:13:33.731Z,15.96
2017-01-24T08:14:14.388Z,15.86
2017-01-24T08:14:55.056Z,15.84
2017-01-24T08:15:35.687Z,15.81
2017-01-24T08:16:16.370Z,15.82
2017-01-24T08:16:57.031Z,15.82
2017-01-24T08:17:37.681Z,15.82
2017-01-24T08:18:18.323Z,15.85
2017-01-24T08:18:58.962Z,15.88
2017-01-24T08:19:39.592Z,15.84
2017-01-24T08:20:20.264Z,15.82
2017-01-24T08:21:00.887Z,15.88
2017-01-24T08:21:41.523Z,15.85
2017-01-24T08:22:22.167Z,15.97
2017-01-24T08:23:02.798Z,15.84
2017-01-24T08:23:43.430Z,15.84
2017-01-24T08:24:24.079Z,15.82
2017-01-24T08:25:04.720Z,15.89
2017-01-24T08:25:45.346Z,15.94
2017-01-24T08:26:25.986Z,15.96
2017-01-24T08:27:06.613Z,15.93
2017-01-24T08:27:47.299Z,15.97
2017-01-24T08:28:27.927Z,15.89
2017-01-24T08:29:08.563Z,15.92
2017-01-24T08:29:49.219Z,15.88
2017-01-24T08:30:29.855Z,15.93
2017-01-24T08:31:10.480Z,15.93
2017-01-24T08:31:51.158Z,15.88
2017-01-24T08:32:31.812Z,15.82
2017-01-24T08:33:12.457Z,15.84
2017-01-24T08:33:53.149Z,15.79
2017-01-24T08:34:33.775Z,15.85
2017-01-24T08:35:14.424Z,15.81
2017-01-24T08:35:55.072Z,15.84
2017-01-24T08:36:35.705Z,15.88
2017-01-24T08:37:16.342Z,15.81
2017-01-24T08:37:57.001Z,15.86
2017-01-24T08:38:37.632Z,15.84
2017-01-24T08:39:18.252Z,15.81
2017-01-24T08:39:58.883Z,15.84
2017-01-24T08:40:39.547Z,15.81
2017-01-24T08:41:20.172Z,15.79
2017-01-24T08:42:00.802Z,15.76
2017-01-24T08:42:41.445Z,15.84
2017-01-24T08:43:22.109Z,15.85
2017-01-24T08:44:02.724Z,15.81
2017-01-24T08:44:43.352Z,15.81
2017-01-24T08:45:24.026Z,15.76
2017-01-24T08:46:04.664Z,15.79